Terminal Aerodrome Forecast
Issued by NWS Des Moines, IA

Home | Current Version | Previous Version | Text Only | Print | Product List | Glossary On
Versions: 1 2 3 4 5 6 7 8 9 10 11 12 13 14 15 16 17 18 19 20 21 22 23 24 25 26 27 28 29 30 31 32 33 34 35 36 37 38 39 40
000
FTUS43 KDMX 111125
TAFDSM
TAF
KDSM 111125Z 1112/1212 19006KT P6SM OVC160
     FM111400 27012KT P6SM FEW210
     FM111600 29017G26KT P6SM SCT220
     FM111800 33024G34KT P6SM OVC027
     FM120100 33019G28KT P6SM BKN040
     FM120900 33013G19KT P6SM SKC=

USA.gov is the U.S. government's official web portal to all federal, state and local government web resources and services.